sensor_id;sensor_type;location;lat;lon;timestamp;P1;durP1;ratioP1;P2;durP2;ratioP2
16975;SDS011;8604;48.148;-1.786;2022-11-20T00:00:21;15.00;;;9.57;;
16975;SDS011;8604;48.148;-1.786;2022-11-20T00:02:49;14.10;;;9.50;;
16975;SDS011;8604;48.148;-1.786;2022-11-20T00:05:18;14.43;;;9.30;;
16975;SDS011;8604;48.148;-1.786;2022-11-20T00:07:47;15.70;;;10.80;;
16975;SDS011;8604;48.148;-1.786;2022-11-20T00:10:18;13.97;;;9.43;;
16975;SDS011;8604;48.148;-1.786;2022-11-20T00:12:46;13.63;;;8.97;;
16975;SDS011;8604;48.148;-1.786;2022-11-20T00:15:15;14.43;;;8.97;;
16975;SDS011;8604;48.148;-1.786;2022-11-20T00:17:44;13.93;;;9.67;;
16975;SDS011;8604;48.148;-1.786;2022-11-20T00:20:13;12.30;;;8.43;;
16975;SDS011;8604;48.148;-1.786;2022-11-20T00:22:42;14.23;;;8.40;;
16975;SDS011;8604;48.148;-1.786;2022-11-20T00:25:11;11.27;;;8.10;;
16975;SDS011;8604;48.148;-1.786;2022-11-20T00:27:41;14.17;;;8.60;;
16975;SDS011;8604;48.148;-1.786;2022-11-20T00:30:11;11.33;;;7.57;;
16975;SDS011;8604;48.148;-1.786;2022-11-20T00:32:41;11.00;;;7.53;;
16975;SDS011;8604;48.148;-1.786;2022-11-20T00:35:09;14.50;;;8.10;;
16975;SDS011;8604;48.148;-1.786;2022-11-20T00:37:38;12.53;;;8.40;;
16975;SDS011;8604;48.148;-1.786;2022-11-20T00:40:10;12.30;;;8.53;;
16975;SDS011;8604;48.148;-1.786;2022-11-20T00:42:39;13.47;;;8.43;;
16975;SDS011;8604;48.148;-1.786;2022-11-20T00:45:09;13.57;;;9.00;;
16975;SDS011;8604;48.148;-1.786;2022-11-20T00:47:38;15.17;;;9.60;;
16975;SDS011;8604;48.148;-1.786;2022-11-20T00:50:07;13.20;;;8.93;;
16975;SDS011;8604;48.148;-1.786;2022-11-20T00:52:36;12.73;;;8.07;;
16975;SDS011;8604;48.148;-1.786;2022-11-20T00:55:05;11.90;;;7.90;;
16975;SDS011;8604;48.148;-1.786;2022-11-20T00:57:34;13.00;;;7.53;;
16975;SDS011;8604;48.148;-1.786;2022-11-20T01:00:05;13.17;;;7.73;;
16975;SDS011;8604;48.148;-1.786;2022-11-20T01:02:38;12.47;;;7.40;;
16975;SDS011;8604;48.148;-1.786;2022-11-20T01:05:06;10.00;;;6.90;;
16975;SDS011;8604;48.148;-1.786;2022-11-20T01:07:35;11.87;;;6.77;;
16975;SDS011;8604;48.148;-1.786;2022-11-20T01:10:04;12.30;;;7.50;;
16975;SDS011;8604;48.148;-1.786;2022-11-20T01:12:37;12.47;;;7.33;;
16975;SDS011;8604;48.148;-1.786;2022-11-20T01:15:08;12.83;;;7.43;;
16975;SDS011;8604;48.148;-1.786;2022-11-20T01:17:37;13.33;;;8.00;;
16975;SDS011;8604;48.148;-1.786;2022-11-20T01:20:06;14.00;;;8.40;;
16975;SDS011;8604;48.148;-1.786;2022-11-20T01:22:36;12.27;;;7.57;;
16975;SDS011;8604;48.148;-1.786;2022-11-20T01:25:05;10.83;;;7.63;;
16975;SDS011;8604;48.148;-1.786;2022-11-20T01:27:39;11.63;;;7.60;;
16975;SDS011;8604;48.148;-1.786;2022-11-20T01:30:11;12.43;;;7.30;;
16975;SDS011;8604;48.148;-1.786;2022-11-20T01:32:40;12.67;;;7.80;;
16975;SDS011;8604;48.148;-1.786;2022-11-20T01:35:09;10.53;;;7.13;;
16975;SDS011;8604;48.148;-1.786;2022-11-20T01:37:37;10.40;;;7.10;;
16975;SDS011;8604;48.148;-1.786;2022-11-20T01:40:11;12.50;;;7.33;;
16975;SDS011;8604;48.148;-1.786;2022-11-20T01:42:44;10.87;;;6.70;;
16975;SDS011;8604;48.148;-1.786;2022-11-20T01:45:50;12.00;;;7.07;;
16975;SDS011;8604;48.148;-1.786;2022-11-20T01:48:26;12.33;;;7.07;;
16975;SDS011;8604;48.148;-1.786;2022-11-20T01:50:59;11.50;;;6.70;;
16975;SDS011;8604;48.148;-1.786;2022-11-20T01:53:32;11.10;;;6.83;;
16975;SDS011;8604;48.148;-1.786;2022-11-20T01:56:05;11.83;;;5.87;;
16975;SDS011;8604;48.148;-1.786;2022-11-20T01:58:38;10.30;;;6.00;;
16975;SDS011;8604;48.148;-1.786;2022-11-20T02:01:11;9.03;;;5.70;;
16975;SDS011;8604;48.148;-1.786;2022-11-20T02:03:41;12.77;;;6.40;;
16975;SDS011;8604;48.148;-1.786;2022-11-20T02:06:12;9.83;;;5.70;;
16975;SDS011;8604;48.148;-1.786;2022-11-20T02:08:45;12.57;;;6.40;;
16975;SDS011;8604;48.148;-1.786;2022-11-20T02:11:13;11.33;;;6.00;;
16975;SDS011;8604;48.148;-1.786;2022-11-20T02:13:42;11.17;;;5.77;;
16975;SDS011;8604;48.148;-1.786;2022-11-20T02:16:15;10.83;;;5.53;;
16975;SDS011;8604;48.148;-1.786;2022-11-20T02:18:47;11.70;;;6.10;;
16975;SDS011;8604;48.148;-1.786;2022-11-20T02:21:24;11.10;;;6.13;;
16975;SDS011;8604;48.148;-1.786;2022-11-20T02:26:39;11.10;;;5.70;;
16975;SDS011;8604;48.148;-1.786;2022-11-20T02:29:15;8.60;;;4.93;;
16975;SDS011;8604;48.148;-1.786;2022-11-20T02:31:47;10.27;;;5.73;;
16975;SDS011;8604;48.148;-1.786;2022-11-20T02:34:16;12.50;;;5.37;;
16975;SDS011;8604;48.148;-1.786;2022-11-20T02:36:44;11.20;;;5.43;;
16975;SDS011;8604;48.148;-1.786;2022-11-20T02:39:16;10.90;;;5.80;;
16975;SDS011;8604;48.148;-1.786;2022-11-20T02:41:47;12.57;;;5.43;;
16975;SDS011;8604;48.148;-1.786;2022-11-20T02:44:16;10.27;;;4.83;;
16975;SDS011;8604;48.148;-1.786;2022-11-20T02:46:45;9.97;;;5.27;;
16975;SDS011;8604;48.148;-1.786;2022-11-20T02:49:13;10.13;;;5.10;;
16975;SDS011;8604;48.148;-1.786;2022-11-20T02:51:43;9.17;;;5.43;;
16975;SDS011;8604;48.148;-1.786;2022-11-20T02:54:11;12.90;;;5.30;;
16975;SDS011;8604;48.148;-1.786;2022-11-20T02:56:41;8.77;;;5.03;;
16975;SDS011;8604;48.148;-1.786;2022-11-20T02:59:10;9.20;;;4.73;;
16975;SDS011;8604;48.148;-1.786;2022-11-20T03:01:38;11.00;;;5.13;;
16975;SDS011;8604;48.148;-1.786;2022-11-20T03:04:07;12.00;;;4.90;;
16975;SDS011;8604;48.148;-1.786;2022-11-20T03:06:36;9.47;;;4.97;;
16975;SDS011;8604;48.148;-1.786;2022-11-20T03:09:05;10.20;;;5.40;;
16975;SDS011;8604;48.148;-1.786;2022-11-20T03:11:37;10.90;;;4.80;;
16975;SDS011;8604;48.148;-1.786;2022-11-20T03:14:07;9.20;;;4.73;;
16975;SDS011;8604;48.148;-1.786;2022-11-20T03:16:36;13.63;;;5.23;;
16975;SDS011;8604;48.148;-1.786;2022-11-20T03:19:06;11.27;;;5.23;;
16975;SDS011;8604;48.148;-1.786;2022-11-20T03:21:35;9.77;;;4.80;;
16975;SDS011;8604;48.148;-1.786;2022-11-20T03:24:04;11.50;;;5.10;;
16975;SDS011;8604;48.148;-1.786;2022-11-20T03:26:36;10.40;;;5.10;;
16975;SDS011;8604;48.148;-1.786;2022-11-20T03:29:07;10.43;;;4.50;;
16975;SDS011;8604;48.148;-1.786;2022-11-20T03:31:37;11.30;;;5.00;;
16975;SDS011;8604;48.148;-1.786;2022-11-20T03:34:08;9.23;;;4.30;;
16975;SDS011;8604;48.148;-1.786;2022-11-20T03:36:38;11.17;;;5.27;;
16975;SDS011;8604;48.148;-1.786;2022-11-20T03:39:07;9.17;;;4.83;;
16975;SDS011;8604;48.148;-1.786;2022-11-20T03:41:37;9.03;;;4.97;;
16975;SDS011;8604;48.148;-1.786;2022-11-20T03:44:11;9.73;;;5.03;;
16975;SDS011;8604;48.148;-1.786;2022-11-20T03:46:40;7.97;;;5.07;;
16975;SDS011;8604;48.148;-1.786;2022-11-20T03:49:08;11.07;;;5.20;;
16975;SDS011;8604;48.148;-1.786;2022-11-20T03:51:37;8.87;;;4.73;;
16975;SDS011;8604;48.148;-1.786;2022-11-20T03:54:07;8.60;;;4.83;;
16975;SDS011;8604;48.148;-1.786;2022-11-20T03:56:37;10.13;;;4.83;;
16975;SDS011;8604;48.148;-1.786;2022-11-20T03:59:11;7.20;;;4.83;;
16975;SDS011;8604;48.148;-1.786;2022-11-20T04:01:39;10.57;;;5.23;;
16975;SDS011;8604;48.148;-1.786;2022-11-20T04:04:14;8.17;;;4.60;;
16975;SDS011;8604;48.148;-1.786;2022-11-20T04:06:43;8.57;;;5.00;;
16975;SDS011;8604;48.148;-1.786;2022-11-20T04:09:12;10.00;;;4.70;;
16975;SDS011;8604;48.148;-1.786;2022-11-20T04:11:42;12.87;;;5.00;;
16975;SDS011;8604;48.148;-1.786;2022-11-20T04:14:13;9.43;;;5.80;;
16975;SDS011;8604;48.148;-1.786;2022-11-20T04:16:43;11.23;;;6.03;;
16975;SDS011;8604;48.148;-1.786;2022-11-20T04:19:12;11.90;;;5.77;;
16975;SDS011;8604;48.148;-1.786;2022-11-20T04:21:41;14.27;;;5.80;;
16975;SDS011;8604;48.148;-1.786;2022-11-20T04:24:11;9.37;;;5.53;;
16975;SDS011;8604;48.148;-1.786;2022-11-20T04:26:39;9.77;;;5.40;;
16975;SDS011;8604;48.148;-1.786;2022-11-20T04:29:10;12.77;;;6.53;;
16975;SDS011;8604;48.148;-1.786;2022-11-20T04:31:40;9.33;;;5.83;;
16975;SDS011;8604;48.148;-1.786;2022-11-20T04:34:10;11.00;;;6.07;;
16975;SDS011;8604;48.148;-1.786;2022-11-20T04:36:39;10.23;;;6.47;;
16975;SDS011;8604;48.148;-1.786;2022-11-20T04:39:11;12.13;;;6.83;;
16975;SDS011;8604;48.148;-1.786;2022-11-20T04:41:41;11.13;;;7.30;;
16975;SDS011;8604;48.148;-1.786;2022-11-20T04:44:09;12.07;;;7.37;;
16975;SDS011;8604;48.148;-1.786;2022-11-20T04:46:39;11.17;;;7.30;;
16975;SDS011;8604;48.148;-1.786;2022-11-20T04:49:10;10.77;;;7.03;;
16975;SDS011;8604;48.148;-1.786;2022-11-20T04:51:39;12.07;;;7.67;;
16975;SDS011;8604;48.148;-1.786;2022-11-20T04:54:08;10.30;;;7.30;;
16975;SDS011;8604;48.148;-1.786;2022-11-20T04:56:38;10.97;;;7.43;;
16975;SDS011;8604;48.148;-1.786;2022-11-20T04:59:06;12.27;;;7.80;;
16975;SDS011;8604;48.148;-1.786;2022-11-20T05:01:35;12.30;;;7.37;;
16975;SDS011;8604;48.148;-1.786;2022-11-20T05:04:05;10.40;;;7.10;;
16975;SDS011;8604;48.148;-1.786;2022-11-20T05:06:34;14.50;;;8.13;;
16975;SDS011;8604;48.148;-1.786;2022-11-20T05:09:03;9.83;;;7.20;;
16975;SDS011;8604;48.148;-1.786;2022-11-20T05:11:34;10.33;;;6.83;;
16975;SDS011;8604;48.148;-1.786;2022-11-20T05:14:03;11.27;;;8.43;;
16975;SDS011;8604;48.148;-1.786;2022-11-20T05:16:33;13.17;;;7.70;;
16975;SDS011;8604;48.148;-1.786;2022-11-20T05:19:02;11.77;;;8.00;;
16975;SDS011;8604;48.148;-1.786;2022-11-20T05:21:32;11.87;;;8.17;;
16975;SDS011;8604;48.148;-1.786;2022-11-20T05:24:01;10.00;;;7.33;;
16975;SDS011;8604;48.148;-1.786;2022-11-20T05:26:31;11.97;;;7.90;;
16975;SDS011;8604;48.148;-1.786;2022-11-20T05:28:59;12.97;;;8.47;;
16975;SDS011;8604;48.148;-1.786;2022-11-20T05:31:28;14.13;;;8.33;;
16975;SDS011;8604;48.148;-1.786;2022-11-20T05:33:56;12.87;;;8.10;;
16975;SDS011;8604;48.148;-1.786;2022-11-20T05:36:25;12.57;;;8.53;;
16975;SDS011;8604;48.148;-1.786;2022-11-20T05:38:55;12.93;;;8.03;;
16975;SDS011;8604;48.148;-1.786;2022-11-20T05:41:27;13.47;;;8.33;;
16975;SDS011;8604;48.148;-1.786;2022-11-20T05:43:58;12.67;;;7.10;;
16975;SDS011;8604;48.148;-1.786;2022-11-20T05:46:27;12.40;;;8.27;;
16975;SDS011;8604;48.148;-1.786;2022-11-20T05:48:55;11.03;;;6.90;;
16975;SDS011;8604;48.148;-1.786;2022-11-20T05:51:25;8.40;;;6.87;;
16975;SDS011;8604;48.148;-1.786;2022-11-20T05:53:57;14.73;;;8.33;;
16975;SDS011;8604;48.148;-1.786;2022-11-20T05:56:25;22.67;;;13.60;;
16975;SDS011;8604;48.148;-1.786;2022-11-20T05:58:55;21.20;;;11.33;;
16975;SDS011;8604;48.148;-1.786;2022-11-20T06:01:24;11.80;;;7.57;;
16975;SDS011;8604;48.148;-1.786;2022-11-20T06:03:53;6.63;;;5.53;;
16975;SDS011;8604;48.148;-1.786;2022-11-20T06:06:22;5.93;;;4.70;;
16975;SDS011;8604;48.148;-1.786;2022-11-20T06:08:51;6.67;;;4.40;;
16975;SDS011;8604;48.148;-1.786;2022-11-20T06:11:22;11.03;;;9.30;;
16975;SDS011;8604;48.148;-1.786;2022-11-20T06:13:50;8.13;;;6.60;;
16975;SDS011;8604;48.148;-1.786;2022-11-20T06:16:19;6.67;;;5.17;;
16975;SDS011;8604;48.148;-1.786;2022-11-20T06:18:48;6.07;;;4.17;;
16975;SDS011;8604;48.148;-1.786;2022-11-20T06:21:17;4.70;;;3.70;;
16975;SDS011;8604;48.148;-1.786;2022-11-20T06:23:47;4.27;;;3.37;;
16975;SDS011;8604;48.148;-1.786;2022-11-20T06:26:16;4.73;;;2.90;;
16975;SDS011;8604;48.148;-1.786;2022-11-20T06:28:48;3.83;;;3.00;;
16975;SDS011;8604;48.148;-1.786;2022-11-20T06:31:18;2.80;;;2.50;;
16975;SDS011;8604;48.148;-1.786;2022-11-20T06:33:48;3.50;;;2.60;;
16975;SDS011;8604;48.148;-1.786;2022-11-20T06:36:18;3.43;;;2.67;;
16975;SDS011;8604;48.148;-1.786;2022-11-20T06:38:48;3.87;;;2.77;;
16975;SDS011;8604;48.148;-1.786;2022-11-20T06:41:18;4.87;;;3.20;;
16975;SDS011;8604;48.148;-1.786;2022-11-20T06:43:49;5.23;;;3.20;;
16975;SDS011;8604;48.148;-1.786;2022-11-20T22:32:20;17.30;;;5.30;;
16975;SDS011;8604;48.148;-1.786;2022-11-20T22:34:49;13.90;;;4.97;;
16975;SDS011;8604;48.148;-1.786;2022-11-20T22:37:17;17.40;;;4.83;;
16975;SDS011;8604;48.148;-1.786;2022-11-20T22:39:46;28.10;;;11.17;;
16975;SDS011;8604;48.148;-1.786;2022-11-20T22:42:15;34.10;;;16.50;;
16975;SDS011;8604;48.148;-1.786;2022-11-20T22:44:45;27.60;;;11.83;;
16975;SDS011;8604;48.148;-1.786;2022-11-20T22:47:14;25.43;;;10.47;;
16975;SDS011;8604;48.148;-1.786;2022-11-20T22:49:44;23.90;;;10.57;;
16975;SDS011;8604;48.148;-1.786;2022-11-20T22:52:13;21.87;;;6.87;;
16975;SDS011;8604;48.148;-1.786;2022-11-20T22:54:42;24.37;;;7.40;;
16975;SDS011;8604;48.148;-1.786;2022-11-20T22:57:10;25.40;;;8.47;;
16975;SDS011;8604;48.148;-1.786;2022-11-20T22:59:39;30.33;;;9.17;;
16975;SDS011;8604;48.148;-1.786;2022-11-20T23:02:08;26.97;;;9.30;;
16975;SDS011;8604;48.148;-1.786;2022-11-20T23:04:36;23.17;;;8.53;;
16975;SDS011;8604;48.148;-1.786;2022-11-20T23:07:06;27.70;;;9.67;;
16975;SDS011;8604;48.148;-1.786;2022-11-20T23:09:35;24.80;;;9.03;;
16975;SDS011;8604;48.148;-1.786;2022-11-20T23:12:04;32.57;;;11.53;;
16975;SDS011;8604;48.148;-1.786;2022-11-20T23:14:33;31.03;;;12.60;;
16975;SDS011;8604;48.148;-1.786;2022-11-20T23:17:02;32.40;;;12.87;;
16975;SDS011;8604;48.148;-1.786;2022-11-20T23:19:30;37.87;;;14.40;;
16975;SDS011;8604;48.148;-1.786;2022-11-20T23:21:59;32.13;;;12.47;;
16975;SDS011;8604;48.148;-1.786;2022-11-20T23:24:29;29.00;;;11.17;;
16975;SDS011;8604;48.148;-1.786;2022-11-20T23:26:57;18.77;;;8.47;;
16975;SDS011;8604;48.148;-1.786;2022-11-20T23:29:26;17.83;;;7.23;;
16975;SDS011;8604;48.148;-1.786;2022-11-20T23:31:55;18.30;;;6.43;;
16975;SDS011;8604;48.148;-1.786;2022-11-20T23:34:23;16.13;;;5.80;;
16975;SDS011;8604;48.148;-1.786;2022-11-20T23:36:52;15.30;;;5.10;;
16975;SDS011;8604;48.148;-1.786;2022-11-20T23:39:21;17.27;;;5.90;;
16975;SDS011;8604;48.148;-1.786;2022-11-20T23:41:51;16.23;;;5.90;;
16975;SDS011;8604;48.148;-1.786;2022-11-20T23:44:19;18.37;;;6.00;;
16975;SDS011;8604;48.148;-1.786;2022-11-20T23:46:49;14.87;;;5.90;;
16975;SDS011;8604;48.148;-1.786;2022-11-20T23:49:17;17.00;;;6.70;;
16975;SDS011;8604;48.148;-1.786;2022-11-20T23:51:46;15.20;;;5.73;;
16975;SDS011;8604;48.148;-1.786;2022-11-20T23:54:15;14.97;;;5.80;;
16975;SDS011;8604;48.148;-1.786;2022-11-20T23:56:43;15.87;;;5.80;;
16975;SDS011;8604;48.148;-1.786;2022-11-20T23:59:13;14.90;;;5.50;;
